Terminal Aerodrome Forecast
Issued by NWS Wilmington, OH

Current Version | Previous Version | Graphics & Text | Print | Product List | Glossary On
Versions: 1 2 3 4 5 6 7 8 9 10 11 12 13 14 15 16 17 18 19 20 21 22 23 24 25 26 27 28 29 30 31
000
FTUS41 KILN 031500 AAA
TAFCVG
TAF AMD
KCVG 031506Z 0315/0418 15008KT P6SM OVC015
      TEMPO 0315/0318 3SM -RA BR OVC008
     FM031800 20010KT 5SM -RA BR OVC008
     FM032300 25011KT 3SM -SHRA BR BKN007 OVC015
     FM040600 30008KT 5SM BR VCSH OVC007=

USA.gov is the U.S. government's official web portal to all federal, state and local government web resources and services.